Airfield :
LOGIN :

Register | Disclaimer

   EN    FR    IT 

 










Legend :    VFR   Marginal VFR   IFR   Intensive IFR   Very Intensive IFR
Visi :
Ceiling :
>= 8 km
>= 3000ft
5 to 8 km
1000 to 3000 ft
1500m to 5 km
500 to 1000 ft
800 to 1500m
200 to 500 ft
< 800m
< 200 ft
Symbols :   Thunderstorms  Fog  Heavy snow  Heavy precipitations  Wind > 20 kt
SIGMETs :     Misc.  Thunderstorms  Icing  Turbulence  Mountain Waves  Volcanic Ashes






- Airport Elevation : 400 ft
- IATA code : BNX


LQBK - Banja Luka

CURRENT METAR :
  • 291530Z 00000KT 9999 FEW040 15/14 Q1018 NOSIG

EXPIRED METARs :
  • 291500Z 00000KT 9999 FEW040 16/14 Q1018 NOSIG
  • 291430Z 36002KT 9999 SCT040 15/14 Q1018 NOSIG
  • 291400Z 33005KT 9999 SCT040 15/14 Q1018 NOSIG
  • 291330Z 34003KT 9999 BKN040 15/13 Q1018 NOSIG
  • 291300Z 01002KT 9999 BKN040 15/13 Q1018 NOSIG

TAF TAF LQBK
Valid from the 29 at 12:00 until the 30 at 12:00 UTC


291100Z 2912/3012 16005KT 9999 SCT035 TX15/2913Z TN09/3005Z
PROB40
TEMPO 2912/2921 35010KT RA
PROB40
TEMPO 2921/3008 3000 BR BKN010



MET'MAP, your aeronautical weather chart ! - Copyright ORBIFLY December 2007 - Disclaimer

ORBIFLY MET'MAP TEAM :

Programming & Development : Alexandra Zaïnal
Concept & original design : Baudouin d'Aumeries
Assistance for programming : Marc-Olivier Méhu
Technical & hardware support : Manuel Goepfert

Contact : metmap@orbifly.com




SOURCES & CREDITS :

   NOAA